Main page
METAR-TAF:

METAR-TAF

Airports :

Kullu–Manali Airport

Kullu / Manali, India

latitude: 31-52-36N, longitude: 77-09-16E, elevation: 1089 m

Current weather observation

The report was made 55 minutes ago, at 05:00 UTC
Calm wind
Temperature 27°C
Humidity 70%
Pressure 1011 hPa
Visibility: 6000 m
Scattered clouds at a height of 3000 ft
Broken clouds at a height of 8000 ft

METAR: VIBR 250500Z 00000KT 6000 SCT030 BKN080 27/21 Q1011

Time: 11:25 (05:55 UTC)

Forecast

The report was made 55 minutes ago, at 05:00 UTC
Forecast valid from 25 at 06 UTC to 25 at 15 UTC
Wind 8 kt from the South/Southeast
Visibility: 5000 m
Scattered clouds at a height of 3000 ft
Broken clouds at a height of 9000 ft
mist, light rain
Becoming
from 25 at 09 UTC to 25 at 15 UTC
Wind 5 kt from the Southwest
Visibility: 2000 m
Few clouds at a height of 3500 ft, Cumulonimbus.
Overcast at a height of 8000 ft
thunderstorm, light rain

TAF: VIBR 250500Z 2506/2515 15008KT 5000 BR -RA SCT030 BKN090 BECMG 2509/2515 23005KT 2000 -TSRA FEW035CB OVC080

Weather observations and forecasts of more than 4000 airports (METAR and TAF reports).

The available stations are represented by yellow and red dots on the map.

Hover mouse over dot to see the name of the station.

Then click to see weather observations and forecasts.

To change the map : click on the green buttons with a black cross to zoom in, on the green button with a dash to zoom out, or on the green arrows for adjacent maps.


METAR-TAF: